createdAt,value
2022-11-06T00:03:24.004Z,13.81
2022-11-06T00:08:23.920Z,11.43
2022-11-06T00:13:23.991Z,13.45
2022-11-06T00:18:23.943Z,12.54
2022-11-06T00:23:23.939Z,13.4
2022-11-06T00:28:23.986Z,12.35
2022-11-06T00:33:23.975Z,13.19
2022-11-06T00:38:23.977Z,12.39
2022-11-06T00:43:23.981Z,11.5
2022-11-06T00:48:23.996Z,11.14
2022-11-06T00:53:23.991Z,12.57
2022-11-06T00:58:23.988Z,13.17
2022-11-06T01:03:23.959Z,13.11
2022-11-06T01:08:23.993Z,13.16
2022-11-06T01:13:23.969Z,13.05
2022-11-06T01:18:24.021Z,12.94
2022-11-06T01:23:23.973Z,13.15
2022-11-06T01:28:23.975Z,13.11
2022-11-06T01:33:23.976Z,14.6
2022-11-06T01:38:24.012Z,13.59
2022-11-06T01:43:23.969Z,13.06
2022-11-06T01:48:24.011Z,11.88
2022-11-06T01:53:23.977Z,15.09
2022-11-06T01:58:23.976Z,13.79
2022-11-06T02:03:24.001Z,14.79
2022-11-06T02:08:23.994Z,15.4
2022-11-06T02:13:23.989Z,13.69
2022-11-06T02:18:23.988Z,15.25
2022-11-06T02:23:23.995Z,14.13
2022-11-06T02:28:24.000Z,14.8
2022-11-06T16:38:40.195Z,10.36
2022-11-06T16:43:24.405Z,10.53
2022-11-06T16:48:24.361Z,10.91
2022-11-06T16:53:24.397Z,10.41
2022-11-06T16:58:24.396Z,10.08
2022-11-06T17:03:24.363Z,9.71
2022-11-06T17:08:24.363Z,10.45
2022-11-06T17:13:24.414Z,9.75
2022-11-06T17:18:24.414Z,10.3
2022-11-06T17:23:24.705Z,10.87
2022-11-06T17:28:24.373Z,10.93
2022-11-06T17:33:24.410Z,11.24
2022-11-06T17:38:24.418Z,10.87
2022-11-06T17:43:24.419Z,10.19
2022-11-06T17:48:24.393Z,9.88
2022-11-06T17:53:24.427Z,10.1
2022-11-06T17:58:24.429Z,9.32
2022-11-06T18:03:24.486Z,10.78
2022-11-06T18:08:24.399Z,20.19
2022-11-06T18:13:24.390Z,16.11
2022-11-06T18:18:24.438Z,14.34
2022-11-06T18:23:24.423Z,17.26
2022-11-06T18:28:24.445Z,18.28
2022-11-06T18:33:24.406Z,17.54
2022-11-06T18:38:24.417Z,15.62
2022-11-06T18:43:24.449Z,13.89
2022-11-06T18:48:24.722Z,13.61
2022-11-06T18:53:24.434Z,12.78
2022-11-06T18:58:24.414Z,11.05
2022-11-06T19:03:24.422Z,12.07
2022-11-06T19:08:24.421Z,12.09
2022-11-06T19:13:24.456Z,15.09
2022-11-06T19:18:24.480Z,14.18
2022-11-06T19:23:24.435Z,13.85
2022-11-06T19:28:24.425Z,12.27
2022-11-06T19:33:24.443Z,12.15
2022-11-06T19:43:24.475Z,11.2
2022-11-06T19:48:24.440Z,11.42
2022-11-06T19:53:24.465Z,11.16
2022-11-06T19:58:24.442Z,11.1
2022-11-06T20:03:24.480Z,10.58
2022-11-06T20:08:24.446Z,12.65
2022-11-06T20:13:24.451Z,12.8
2022-11-06T20:18:24.454Z,12.56
2022-11-06T20:23:24.462Z,11.37
2022-11-06T20:28:24.506Z,10.61
2022-11-06T20:33:24.488Z,10.79
2022-11-06T20:38:24.488Z,11.51
2022-11-06T20:43:24.472Z,10.69
2022-11-06T20:48:24.483Z,11.1
2022-11-06T20:53:24.507Z,10.58
2022-11-06T20:58:24.480Z,9.53
2022-11-06T21:03:24.470Z,9.24
2022-11-06T21:08:24.482Z,9.1
2022-11-06T21:13:24.524Z,8.6
2022-11-06T21:18:24.472Z,8.63
2022-11-06T21:23:24.483Z,7.87
2022-11-06T21:28:24.519Z,7.83
2022-11-06T21:33:24.508Z,7.51
2022-11-06T21:38:24.482Z,7.86
2022-11-06T21:43:24.518Z,8.76
2022-11-06T21:48:40.488Z,9.61
2022-11-06T21:53:24.529Z,9.95
2022-11-06T21:58:24.505Z,10.08
2022-11-06T22:03:24.499Z,9.73
2022-11-06T22:08:28.316Z,9.41
2022-11-06T22:13:24.507Z,8.95
2022-11-06T22:18:24.500Z,9.02
2022-11-06T22:23:24.512Z,8.56
2022-11-06T22:28:24.554Z,8.23
2022-11-06T22:33:24.549Z,6.87
2022-11-06T22:38:24.510Z,6.4
2022-11-06T22:43:24.522Z,6.03
2022-11-06T22:48:24.546Z,5.98
2022-11-06T22:53:24.533Z,5.64
2022-11-06T22:58:24.524Z,5.26
2022-11-06T23:03:24.563Z,5.62
2022-11-06T23:08:24.523Z,5.25
2022-11-06T23:13:24.571Z,5.61
2022-11-06T23:18:24.580Z,5.12
2022-11-06T23:23:24.535Z,5.28
2022-11-06T23:28:24.567Z,5.3
2022-11-06T23:35:32.070Z,5.61
2022-11-06T23:40:26.663Z,5.4
2022-11-06T23:45:26.682Z,5.28
2022-11-06T23:50:26.672Z,5.45
2022-11-06T23:55:26.676Z,4.98
